sensor_id;sensor_type;location;lat;lon;timestamp;pressure;altitude;pressure_sealevel;temperature;humidity
64139;BME280;50435;43.700;-79.318;2023-03-24T00:00:35;99964.19;;;6.09;45.97
64139;BME280;50435;43.700;-79.318;2023-03-24T00:03:03;99965.24;;;5.62;46.05
64139;BME280;50435;43.700;-79.318;2023-03-24T00:05:31;99967.03;;;5.52;46.15
64139;BME280;50435;43.700;-79.318;2023-03-24T00:07:59;99974.80;;;5.43;46.25
64139;BME280;50435;43.700;-79.318;2023-03-24T00:10:26;99980.49;;;5.58;46.04
64139;BME280;50435;43.700;-79.318;2023-03-24T00:12:53;99983.92;;;4.73;46.10
64139;BME280;50435;43.700;-79.318;2023-03-24T00:15:21;99990.68;;;5.18;46.41
64139;BME280;50435;43.700;-79.318;2023-03-24T00:17:49;99998.16;;;4.74;46.74
64139;BME280;50435;43.700;-79.318;2023-03-24T00:20:18;100010.12;;;5.62;46.24
64139;BME280;50435;43.700;-79.318;2023-03-24T00:22:48;100012.89;;;3.97;46.60
64139;BME280;50435;43.700;-79.318;2023-03-24T00:25:17;100019.01;;;5.34;46.72
64139;BME280;50435;43.700;-79.318;2023-03-24T00:27:46;100023.12;;;4.04;46.59
64139;BME280;50435;43.700;-79.318;2023-03-24T00:30:14;100028.82;;;5.27;46.31
64139;BME280;50435;43.700;-79.318;2023-03-24T00:32:42;100036.65;;;4.04;46.67
64139;BME280;50435;43.700;-79.318;2023-03-24T00:35:12;100040.27;;;4.98;46.91
64139;BME280;50435;43.700;-79.318;2023-03-24T00:37:40;100041.69;;;4.29;47.14
64139;BME280;50435;43.700;-79.318;2023-03-24T00:40:12;100049.86;;;4.61;46.98
64139;BME280;50435;43.700;-79.318;2023-03-24T00:42:40;100050.21;;;4.30;47.08
64139;BME280;50435;43.700;-79.318;2023-03-24T00:45:08;100055.56;;;4.51;46.48
64139;BME280;50435;43.700;-79.318;2023-03-24T00:47:36;100058.77;;;4.60;47.28
64139;BME280;50435;43.700;-79.318;2023-03-24T00:50:04;100069.65;;;4.74;46.83
64139;BME280;50435;43.700;-79.318;2023-03-24T00:52:32;100075.75;;;4.63;46.93
64139;BME280;50435;43.700;-79.318;2023-03-24T00:55:02;100078.42;;;4.29;47.46
64139;BME280;50435;43.700;-79.318;2023-03-24T00:57:31;100076.81;;;4.31;47.53
64139;BME280;50435;43.700;-79.318;2023-03-24T01:00:01;100083.46;;;4.13;47.43
64139;BME280;50435;43.700;-79.318;2023-03-24T01:02:30;100092.22;;;4.32;47.14
64139;BME280;50435;43.700;-79.318;2023-03-24T01:04:59;100096.50;;;4.24;47.26
64139;BME280;50435;43.700;-79.318;2023-03-24T01:07:28;100094.15;;;4.09;47.76
64139;BME280;50435;43.700;-79.318;2023-03-24T01:09:56;100100.76;;;4.17;47.61
64139;BME280;50435;43.700;-79.318;2023-03-24T01:12:25;100103.87;;;4.45;47.50
64139;BME280;50435;43.700;-79.318;2023-03-24T01:14:53;100111.13;;;4.14;47.32
64139;BME280;50435;43.700;-79.318;2023-03-24T01:17:21;100113.32;;;4.01;47.70
64139;BME280;50435;43.700;-79.318;2023-03-24T01:19:48;100120.60;;;2.80;47.64
64139;BME280;50435;43.700;-79.318;2023-03-24T01:22:15;100122.78;;;4.04;47.28
64139;BME280;50435;43.700;-79.318;2023-03-24T01:24:43;100134.14;;;3.52;47.43
64139;BME280;50435;43.700;-79.318;2023-03-24T01:27:10;100138.30;;;3.78;47.72
64139;BME280;50435;43.700;-79.318;2023-03-24T01:29:37;100142.83;;;3.97;48.02
64139;BME280;50435;43.700;-79.318;2023-03-24T01:32:05;100152.42;;;3.72;48.02
64139;BME280;50435;43.700;-79.318;2023-03-24T01:34:33;100149.86;;;4.04;47.68
64139;BME280;50435;43.700;-79.318;2023-03-24T01:37:02;100152.13;;;3.76;48.29
64139;BME280;50435;43.700;-79.318;2023-03-24T01:39:29;100154.66;;;3.81;47.97
64139;BME280;50435;43.700;-79.318;2023-03-24T01:41:57;100161.28;;;3.56;47.66
64139;BME280;50435;43.700;-79.318;2023-03-24T01:44:27;100164.50;;;3.90;47.63
64139;BME280;50435;43.700;-79.318;2023-03-24T01:46:56;100173.20;;;3.64;47.57
64139;BME280;50435;43.700;-79.318;2023-03-24T01:49:26;100183.86;;;4.05;47.67
64139;BME280;50435;43.700;-79.318;2023-03-24T01:51:58;100186.18;;;3.72;47.95
64139;BME280;50435;43.700;-79.318;2023-03-24T01:54:29;100187.66;;;3.82;48.24
64139;BME280;50435;43.700;-79.318;2023-03-24T01:57:01;100185.07;;;3.31;48.07
64139;BME280;50435;43.700;-79.318;2023-03-24T01:59:32;100183.19;;;3.71;48.25
64139;BME280;50435;43.700;-79.318;2023-03-24T02:02:03;100195.57;;;3.51;48.05
64139;BME280;50435;43.700;-79.318;2023-03-24T02:04:33;100194.96;;;3.65;48.35
64139;BME280;50435;43.700;-79.318;2023-03-24T02:07:18;100204.18;;;3.48;48.69
64139;BME280;50435;43.700;-79.318;2023-03-24T02:09:48;100209.95;;;3.07;48.51
64139;BME280;50435;43.700;-79.318;2023-03-24T02:12:16;100210.77;;;3.44;48.47
64139;BME280;50435;43.700;-79.318;2023-03-24T02:14:44;100210.90;;;2.36;48.80
64139;BME280;50435;43.700;-79.318;2023-03-24T02:17:23;100204.87;;;3.35;48.80
64139;BME280;50435;43.700;-79.318;2023-03-24T02:20:24;100205.44;;;3.34;48.55
64139;BME280;50435;43.700;-79.318;2023-03-24T02:23:44;100202.08;;;2.59;49.03
64139;BME280;50435;43.700;-79.318;2023-03-24T02:26:52;100199.64;;;3.13;48.82
64139;BME280;50435;43.700;-79.318;2023-03-24T02:29:42;100210.39;;;3.36;48.96
64139;BME280;50435;43.700;-79.318;2023-03-24T02:33:36;100214.20;;;3.08;49.01
64139;BME280;50435;43.700;-79.318;2023-03-24T02:36:30;100211.95;;;3.05;49.03
64139;BME280;50435;43.700;-79.318;2023-03-24T02:39:31;100212.31;;;3.08;48.82
64139;BME280;50435;43.700;-79.318;2023-03-24T02:42:08;100214.56;;;2.97;48.80
64139;BME280;50435;43.700;-79.318;2023-03-24T02:44:46;100218.53;;;2.20;48.82
64139;BME280;50435;43.700;-79.318;2023-03-24T02:47:23;100218.31;;;3.11;48.94
64139;BME280;50435;43.700;-79.318;2023-03-24T02:49:57;100222.45;;;2.39;48.92
64139;BME280;50435;43.700;-79.318;2023-03-24T02:52:35;100227.15;;;3.07;48.85
64139;BME280;50435;43.700;-79.318;2023-03-24T02:55:11;100234.63;;;2.89;48.75
64139;BME280;50435;43.700;-79.318;2023-03-24T02:57:43;100232.26;;;2.18;49.17
64139;BME280;50435;43.700;-79.318;2023-03-24T03:00:18;100240.33;;;2.91;49.08
64139;BME280;50435;43.700;-79.318;2023-03-24T03:02:53;100239.96;;;1.43;49.12
64139;BME280;50435;43.700;-79.318;2023-03-24T03:05:25;100241.44;;;2.84;49.00
64139;BME280;50435;43.700;-79.318;2023-03-24T03:07:57;100248.43;;;2.46;49.33
64139;BME280;50435;43.700;-79.318;2023-03-24T03:10:29;100253.57;;;2.66;49.54
64139;BME280;50435;43.700;-79.318;2023-03-24T03:13:00;100245.78;;;2.85;49.48
64139;BME280;50435;43.700;-79.318;2023-03-24T03:15:33;100238.01;;;2.50;49.77
64139;BME280;50435;43.700;-79.318;2023-03-24T03:18:07;100241.26;;;2.35;49.43
64139;BME280;50435;43.700;-79.318;2023-03-24T03:20:40;100256.90;;;2.80;49.53
64139;BME280;50435;43.700;-79.318;2023-03-24T03:23:12;100260.99;;;2.57;49.37
64139;BME280;50435;43.700;-79.318;2023-03-24T03:25:45;100253.56;;;1.79;49.46
64139;BME280;50435;43.700;-79.318;2023-03-24T03:28:16;100236.37;;;2.23;49.92
64139;BME280;50435;43.700;-79.318;2023-03-24T03:30:47;100229.81;;;1.33;49.83
64139;BME280;50435;43.700;-79.318;2023-03-24T03:33:19;100242.09;;;2.23;49.84
64139;BME280;50435;43.700;-79.318;2023-03-24T03:35:52;100248.30;;;1.10;49.81
64139;BME280;50435;43.700;-79.318;2023-03-24T03:38:28;100238.22;;;2.16;49.93
64139;BME280;50435;43.700;-79.318;2023-03-24T03:40:59;100244.45;;;2.00;50.24
64139;BME280;50435;43.700;-79.318;2023-03-24T03:43:27;100252.57;;;2.33;50.03
64139;BME280;50435;43.700;-79.318;2023-03-24T03:45:57;100253.75;;;1.85;50.30
64139;BME280;50435;43.700;-79.318;2023-03-24T03:48:26;100257.27;;;2.30;50.00
64139;BME280;50435;43.700;-79.318;2023-03-24T03:50:55;100266.73;;;2.22;50.28
64139;BME280;50435;43.700;-79.318;2023-03-24T03:53:29;100269.24;;;2.23;50.08
64139;BME280;50435;43.700;-79.318;2023-03-24T03:55:59;100270.78;;;1.93;50.04
64139;BME280;50435;43.700;-79.318;2023-03-24T03:58:26;100270.77;;;1.84;50.19
64139;BME280;50435;43.700;-79.318;2023-03-24T04:00:54;100264.35;;;1.62;49.98
64139;BME280;50435;43.700;-79.318;2023-03-24T04:03:35;100255.26;;;2.23;49.80
64139;BME280;50435;43.700;-79.318;2023-03-24T04:06:10;100259.36;;;2.12;50.12
64139;BME280;50435;43.700;-79.318;2023-03-24T04:08:48;100274.19;;;1.23;49.72
64139;BME280;50435;43.700;-79.318;2023-03-24T04:11:43;100277.76;;;1.93;50.17
64139;BME280;50435;43.700;-79.318;2023-03-24T04:14:23;100267.84;;;1.69;50.18
64139;BME280;50435;43.700;-79.318;2023-03-24T04:17:03;100264.76;;;1.60;50.15
64139;BME280;50435;43.700;-79.318;2023-03-24T04:19:45;100268.93;;;1.98;50.02
64139;BME280;50435;43.700;-79.318;2023-03-24T04:22:24;100264.95;;;1.91;50.04
64139;BME280;50435;43.700;-79.318;2023-03-24T04:24:56;100268.12;;;1.43;49.99
64139;BME280;50435;43.700;-79.318;2023-03-24T04:27:29;100269.44;;;1.85;50.08
64139;BME280;50435;43.700;-79.318;2023-03-24T04:30:08;100266.35;;;1.88;49.89
64139;BME280;50435;43.700;-79.318;2023-03-24T04:32:42;100273.63;;;1.86;49.90
64139;BME280;50435;43.700;-79.318;2023-03-24T04:35:12;100272.08;;;1.94;49.70
64139;BME280;50435;43.700;-79.318;2023-03-24T04:37:44;100274.46;;;0.59;49.87
64139;BME280;50435;43.700;-79.318;2023-03-24T04:40:13;100277.66;;;1.97;50.05
64139;BME280;50435;43.700;-79.318;2023-03-24T04:42:45;100280.71;;;0.64;50.12
64139;BME280;50435;43.700;-79.318;2023-03-24T04:45:15;100278.93;;;1.50;50.43
64139;BME280;50435;43.700;-79.318;2023-03-24T04:47:46;100281.40;;;0.56;50.30
64139;BME280;50435;43.700;-79.318;2023-03-24T04:50:26;100279.35;;;1.79;50.17
64139;BME280;50435;43.700;-79.318;2023-03-24T04:52:53;100292.82;;;1.09;50.11
64139;BME280;50435;43.700;-79.318;2023-03-24T04:55:36;100301.18;;;1.52;50.17
64139;BME280;50435;43.700;-79.318;2023-03-24T04:58:09;100303.06;;;1.40;50.29
64139;BME280;50435;43.700;-79.318;2023-03-24T05:00:36;100310.45;;;1.37;50.41
64139;BME280;50435;43.700;-79.318;2023-03-24T05:03:04;100309.67;;;1.70;50.27
64139;BME280;50435;43.700;-79.318;2023-03-24T05:05:31;100300.96;;;1.80;50.46
64139;BME280;50435;43.700;-79.318;2023-03-24T05:07:58;100299.20;;;1.27;50.64
64139;BME280;50435;43.700;-79.318;2023-03-24T05:10:26;100295.50;;;1.95;50.09
64139;BME280;50435;43.700;-79.318;2023-03-24T05:12:53;100282.23;;;1.05;50.27
64139;BME280;50435;43.700;-79.318;2023-03-24T05:15:20;100278.41;;;1.47;50.38
64139;BME280;50435;43.700;-79.318;2023-03-24T05:17:48;100267.93;;;1.32;50.23
64139;BME280;50435;43.700;-79.318;2023-03-24T05:20:15;100269.38;;;1.39;50.60
64139;BME280;50435;43.700;-79.318;2023-03-24T05:22:42;100271.35;;;0.27;50.38
64139;BME280;50435;43.700;-79.318;2023-03-24T05:25:11;100272.53;;;1.10;50.50
64139;BME280;50435;43.700;-79.318;2023-03-24T05:27:39;100261.50;;;1.90;49.94
64139;BME280;50435;43.700;-79.318;2023-03-24T05:30:07;100255.47;;;1.57;50.14
64139;BME280;50435;43.700;-79.318;2023-03-24T05:32:35;100256.58;;;1.85;49.97
64139;BME280;50435;43.700;-79.318;2023-03-24T05:35:03;100251.77;;;1.13;49.87
64139;BME280;50435;43.700;-79.318;2023-03-24T05:37:31;100250.40;;;1.72;50.33
64139;BME280;50435;43.700;-79.318;2023-03-24T05:39:59;100248.51;;;1.26;50.01
64139;BME280;50435;43.700;-79.318;2023-03-24T05:42:26;100257.32;;;1.23;50.64
64139;BME280;50435;43.700;-79.318;2023-03-24T05:44:54;100274.19;;;1.07;50.43
64139;BME280;50435;43.700;-79.318;2023-03-24T05:47:21;100282.66;;;1.33;50.41
64139;BME280;50435;43.700;-79.318;2023-03-24T05:49:48;100289.96;;;0.60;50.47
64139;BME280;50435;43.700;-79.318;2023-03-24T05:52:15;100285.85;;;1.59;50.26
64139;BME280;50435;43.700;-79.318;2023-03-24T05:54:43;100281.19;;;0.49;50.09
64139;BME280;50435;43.700;-79.318;2023-03-24T05:57:12;100285.14;;;1.19;50.17
64139;BME280;50435;43.700;-79.318;2023-03-24T05:59:41;100285.75;;;0.79;50.31
64139;BME280;50435;43.700;-79.318;2023-03-24T06:02:08;100284.57;;;1.34;50.30
64139;BME280;50435;43.700;-79.318;2023-03-24T06:04:37;100287.07;;;1.50;50.28
64139;BME280;50435;43.700;-79.318;2023-03-24T06:07:04;100292.84;;;1.05;50.20
64139;BME280;50435;43.700;-79.318;2023-03-24T06:09:31;100310.15;;;1.44;50.49
64139;BME280;50435;43.700;-79.318;2023-03-24T06:11:58;100327.41;;;1.37;50.67
64139;BME280;50435;43.700;-79.318;2023-03-24T06:14:26;100337.61;;;1.39;50.49
64139;BME280;50435;43.700;-79.318;2023-03-24T06:16:53;100345.64;;;0.71;50.32
64139;BME280;50435;43.700;-79.318;2023-03-24T06:19:20;100335.91;;;1.18;50.27
64139;BME280;50435;43.700;-79.318;2023-03-24T06:21:48;100324.72;;;0.48;50.27
64139;BME280;50435;43.700;-79.318;2023-03-24T06:24:15;100328.13;;;1.45;50.07
64139;BME280;50435;43.700;-79.318;2023-03-24T06:26:43;100335.61;;;0.36;50.42
64139;BME280;50435;43.700;-79.318;2023-03-24T06:29:11;100343.20;;;0.88;50.41
64139;BME280;50435;43.700;-79.318;2023-03-24T06:31:39;100339.56;;;1.46;50.21
64139;BME280;50435;43.700;-79.318;2023-03-24T06:34:06;100328.14;;;1.05;50.54
64139;BME280;50435;43.700;-79.318;2023-03-24T06:36:33;100338.25;;;1.40;50.36
64139;BME280;50435;43.700;-79.318;2023-03-24T06:39:01;100333.68;;;1.06;50.55
64139;BME280;50435;43.700;-79.318;2023-03-24T06:41:28;100329.43;;;1.18;50.82
64139;BME280;50435;43.700;-79.318;2023-03-24T06:43:55;100336.45;;;0.89;50.31
64139;BME280;50435;43.700;-79.318;2023-03-24T06:46:23;100337.11;;;1.10;50.32
64139;BME280;50435;43.700;-79.318;2023-03-24T06:48:51;100330.99;;;0.80;50.50
64139;BME280;50435;43.700;-79.318;2023-03-24T06:51:19;100333.37;;;0.76;50.69
64139;BME280;50435;43.700;-79.318;2023-03-24T06:53:46;100333.37;;;0.56;50.48
64139;BME280;50435;43.700;-79.318;2023-03-24T06:56:14;100330.14;;;0.81;50.87
64139;BME280;50435;43.700;-79.318;2023-03-24T06:58:42;100334.49;;;0.53;50.45
64139;BME280;50435;43.700;-79.318;2023-03-24T07:01:10;100326.63;;;1.02;50.52
64139;BME280;50435;43.700;-79.318;2023-03-24T07:03:38;100330.05;;;1.40;50.20
64139;BME280;50435;43.700;-79.318;2023-03-24T07:06:06;100338.14;;;0.64;50.69
64139;BME280;50435;43.700;-79.318;2023-03-24T07:08:34;100333.57;;;0.79;50.90
64139;BME280;50435;43.700;-79.318;2023-03-24T07:11:01;100336.99;;;0.82;50.54
64139;BME280;50435;43.700;-79.318;2023-03-24T07:13:29;100331.49;;;1.08;50.37
64139;BME280;50435;43.700;-79.318;2023-03-24T07:15:56;100336.59;;;0.77;50.56
64139;BME280;50435;43.700;-79.318;2023-03-24T07:18:24;100328.70;;;1.30;50.33
64139;BME280;50435;43.700;-79.318;2023-03-24T07:20:51;100324.06;;;0.19;50.65
64139;BME280;50435;43.700;-79.318;2023-03-24T07:23:19;100335.14;;;1.36;50.21
64139;BME280;50435;43.700;-79.318;2023-03-24T07:25:46;100332.14;;;-0.06;50.04
64139;BME280;50435;43.700;-79.318;2023-03-24T07:28:13;100341.48;;;1.23;50.46
64139;BME280;50435;43.700;-79.318;2023-03-24T07:30:41;100342.73;;;0.60;50.85
64139;BME280;50435;43.700;-79.318;2023-03-24T07:33:08;100344.51;;;0.71;50.48
64139;BME280;50435;43.700;-79.318;2023-03-24T07:35:36;100331.84;;;1.13;50.52
64139;BME280;50435;43.700;-79.318;2023-03-24T07:38:05;100332.79;;;0.97;50.94
64139;BME280;50435;43.700;-79.318;2023-03-24T07:40:32;100350.24;;;1.11;50.48
64139;BME280;50435;43.700;-79.318;2023-03-24T07:43:00;100361.86;;;0.83;50.60
64139;BME280;50435;43.700;-79.318;2023-03-24T07:45:27;100360.15;;;0.79;50.81
64139;BME280;50435;43.700;-79.318;2023-03-24T07:47:55;100367.20;;;0.82;50.59
64139;BME280;50435;43.700;-79.318;2023-03-24T07:50:22;100356.27;;;1.01;50.93
64139;BME280;50435;43.700;-79.318;2023-03-24T07:52:49;100343.47;;;0.02;50.73
64139;BME280;50435;43.700;-79.318;2023-03-24T07:55:17;100349.64;;;1.08;50.58
64139;BME280;50435;43.700;-79.318;2023-03-24T07:57:46;100349.68;;;-0.11;50.53
64139;BME280;50435;43.700;-79.318;2023-03-24T08:00:15;100346.90;;;1.18;50.44
64139;BME280;50435;43.700;-79.318;2023-03-24T08:02:44;100346.01;;;0.15;50.49
64139;BME280;50435;43.700;-79.318;2023-03-24T08:05:12;100346.13;;;1.13;50.53
64139;BME280;50435;43.700;-79.318;2023-03-24T08:07:40;100354.65;;;1.22;50.38
64139;BME280;50435;43.700;-79.318;2023-03-24T08:10:09;100347.69;;;1.23;50.38
64139;BME280;50435;43.700;-79.318;2023-03-24T08:12:37;100354.36;;;1.03;50.61
64139;BME280;50435;43.700;-79.318;2023-03-24T08:15:07;100362.58;;;1.12;50.51
64139;BME280;50435;43.700;-79.318;2023-03-24T08:17:36;100360.56;;;1.10;50.47
64139;BME280;50435;43.700;-79.318;2023-03-24T08:20:03;100365.58;;;1.16;50.34
64139;BME280;50435;43.700;-79.318;2023-03-24T08:22:31;100358.29;;;0.94;50.20
64139;BME280;50435;43.700;-79.318;2023-03-24T08:24:58;100360.45;;;0.90;50.31
64139;BME280;50435;43.700;-79.318;2023-03-24T08:27:25;100365.03;;;1.17;50.24
64139;BME280;50435;43.700;-79.318;2023-03-24T08:29:53;100371.64;;;0.63;50.45
64139;BME280;50435;43.700;-79.318;2023-03-24T08:32:20;100359.65;;;1.30;49.96
64139;BME280;50435;43.700;-79.318;2023-03-24T08:34:48;100362.79;;;-0.11;49.95
64139;BME280;50435;43.700;-79.318;2023-03-24T08:37:15;100366.29;;;1.23;50.00
64139;BME280;50435;43.700;-79.318;2023-03-24T08:39:42;100356.51;;;-0.07;50.28
64139;BME280;50435;43.700;-79.318;2023-03-24T08:42:10;100354.33;;;1.01;50.65
64139;BME280;50435;43.700;-79.318;2023-03-24T08:44:37;100343.80;;;1.03;50.62
64139;BME280;50435;43.700;-79.318;2023-03-24T08:47:05;100342.31;;;0.56;50.61
64139;BME280;50435;43.700;-79.318;2023-03-24T08:49:32;100347.29;;;1.00;50.82
64139;BME280;50435;43.700;-79.318;2023-03-24T08:51:59;100340.86;;;0.42;50.94
64139;BME280;50435;43.700;-79.318;2023-03-24T08:54:27;100341.31;;;1.13;50.46
64139;BME280;50435;43.700;-79.318;2023-03-24T08:56:54;100354.23;;;0.32;50.57
64139;BME280;50435;43.700;-79.318;2023-03-24T08:59:21;100360.25;;;0.95;50.84
64139;BME280;50435;43.700;-79.318;2023-03-24T09:01:50;100347.42;;;0.11;50.54
64139;BME280;50435;43.700;-79.318;2023-03-24T09:04:17;100363.89;;;1.11;50.41
64139;BME280;50435;43.700;-79.318;2023-03-24T09:06:44;100368.71;;;-0.41;50.53
64139;BME280;50435;43.700;-79.318;2023-03-24T09:09:12;100371.80;;;1.04;50.72
64139;BME280;50435;43.700;-79.318;2023-03-24T09:11:39;100378.49;;;0.97;50.87
64139;BME280;50435;43.700;-79.318;2023-03-24T09:14:07;100359.16;;;1.03;50.62
64139;BME280;50435;43.700;-79.318;2023-03-24T09:16:34;100367.68;;;1.06;50.46
64139;BME280;50435;43.700;-79.318;2023-03-24T09:19:01;100365.98;;;0.74;50.78
64139;BME280;50435;43.700;-79.318;2023-03-24T09:21:29;100363.85;;;1.17;50.41
64139;BME280;50435;43.700;-79.318;2023-03-24T09:23:56;100401.06;;;0.56;50.58
64139;BME280;50435;43.700;-79.318;2023-03-24T09:26:23;100408.03;;;0.96;50.77
64139;BME280;50435;43.700;-79.318;2023-03-24T09:28:51;100397.36;;;0.28;50.53
64139;BME280;50435;43.700;-79.318;2023-03-24T09:31:18;100381.90;;;1.10;50.49
64139;BME280;50435;43.700;-79.318;2023-03-24T09:33:45;100371.49;;;-0.29;50.41
64139;BME280;50435;43.700;-79.318;2023-03-24T09:36:13;100364.54;;;1.00;50.65
64139;BME280;50435;43.700;-79.318;2023-03-24T09:38:40;100370.43;;;0.60;50.55
64139;BME280;50435;43.700;-79.318;2023-03-24T09:41:15;100374.25;;;1.03;50.57
64139;BME280;50435;43.700;-79.318;2023-03-24T09:43:46;100388.00;;;0.05;50.53
64139;BME280;50435;43.700;-79.318;2023-03-24T09:46:25;100389.73;;;0.71;50.47
64139;BME280;50435;43.700;-79.318;2023-03-24T09:48:55;100387.72;;;0.34;50.52
64139;BME280;50435;43.700;-79.318;2023-03-24T09:51:24;100371.62;;;1.23;50.18
64139;BME280;50435;43.700;-79.318;2023-03-24T09:53:57;100374.96;;;0.60;50.70
64139;BME280;50435;43.700;-79.318;2023-03-24T09:56:26;100380.28;;;1.14;50.40
64139;BME280;50435;43.700;-79.318;2023-03-24T09:59:03;100376.08;;;0.83;50.43
64139;BME280;50435;43.700;-79.318;2023-03-24T10:01:33;100382.44;;;1.10;50.63
64139;BME280;50435;43.700;-79.318;2023-03-24T10:04:01;100364.67;;;0.56;50.61
64139;BME280;50435;43.700;-79.318;2023-03-24T10:06:32;100373.19;;;1.31;50.45
64139;BME280;50435;43.700;-79.318;2023-03-24T10:09:12;100366.68;;;1.04;50.88
64139;BME280;50435;43.700;-79.318;2023-03-24T10:11:47;100368.27;;;-0.10;50.60
64139;BME280;50435;43.700;-79.318;2023-03-24T10:14:26;100378.56;;;1.13;50.55
64139;BME280;50435;43.700;-79.318;2023-03-24T10:17:02;100380.74;;;0.71;50.59
64139;BME280;50435;43.700;-79.318;2023-03-24T10:19:39;100379.96;;;1.03;50.76
64139;BME280;50435;43.700;-79.318;2023-03-24T10:22:18;100380.55;;;1.07;50.43
64139;BME280;50435;43.700;-79.318;2023-03-24T10:24:54;100399.05;;;-0.56;51.10
64139;BME280;50435;43.700;-79.318;2023-03-24T10:27:29;100411.19;;;1.41;50.52
64139;BME280;50435;43.700;-79.318;2023-03-24T10:30:03;100415.45;;;0.67;50.34
64139;BME280;50435;43.700;-79.318;2023-03-24T10:32:34;100406.65;;;0.99;50.84
64139;BME280;50435;43.700;-79.318;2023-03-24T10:35:05;100415.36;;;0.55;50.51
64139;BME280;50435;43.700;-79.318;2023-03-24T10:37:34;100426.30;;;0.96;50.85
64139;BME280;50435;43.700;-79.318;2023-03-24T10:40:06;100425.49;;;0.51;51.09
64139;BME280;50435;43.700;-79.318;2023-03-24T10:42:38;100425.78;;;1.02;50.61
64139;BME280;50435;43.700;-79.318;2023-03-24T10:45:11;100420.88;;;0.76;50.65
64139;BME280;50435;43.700;-79.318;2023-03-24T10:47:41;100418.08;;;1.09;50.38
64139;BME280;50435;43.700;-79.318;2023-03-24T10:50:09;100415.50;;;0.90;50.27
64139;BME280;50435;43.700;-79.318;2023-03-24T10:52:39;100413.68;;;1.01;50.44
64139;BME280;50435;43.700;-79.318;2023-03-24T10:55:15;100412.45;;;0.89;50.99
64139;BME280;50435;43.700;-79.318;2023-03-24T10:57:44;100415.35;;;0.03;50.99
64139;BME280;50435;43.700;-79.318;2023-03-24T11:00:23;100417.37;;;1.06;50.50
64139;BME280;50435;43.700;-79.318;2023-03-24T11:02:55;100411.55;;;0.27;50.40
64139;BME280;50435;43.700;-79.318;2023-03-24T11:05:27;100411.41;;;0.97;50.48
64139;BME280;50435;43.700;-79.318;2023-03-24T11:08:08;100411.46;;;0.41;50.82
64139;BME280;50435;43.700;-79.318;2023-03-24T11:10:36;100421.52;;;1.02;50.49
64139;BME280;50435;43.700;-79.318;2023-03-24T11:13:04;100415.10;;;0.83;50.26
64139;BME280;50435;43.700;-79.318;2023-03-24T11:15:52;100417.52;;;0.47;50.68
64139;BME280;50435;43.700;-79.318;2023-03-24T11:18:19;100413.03;;;0.97;50.68
64139;BME280;50435;43.700;-79.318;2023-03-24T11:20:52;100420.07;;;-0.21;50.56
64139;BME280;50435;43.700;-79.318;2023-03-24T11:23:27;100431.03;;;0.82;50.66
64139;BME280;50435;43.700;-79.318;2023-03-24T11:26:04;100438.85;;;0.59;50.81
64139;BME280;50435;43.700;-79.318;2023-03-24T11:28:37;100451.12;;;0.67;51.14
64139;BME280;50435;43.700;-79.318;2023-03-24T11:31:07;100442.36;;;0.81;50.78
64139;BME280;50435;43.700;-79.318;2023-03-24T11:33:42;100430.86;;;0.90;50.67
64139;BME280;50435;43.700;-79.318;2023-03-24T11:36:46;100439.25;;;0.68;51.11
64139;BME280;50435;43.700;-79.318;2023-03-24T11:39:21;100429.63;;;0.78;50.91
64139;BME280;50435;43.700;-79.318;2023-03-24T11:42:00;100437.34;;;0.25;50.81
64139;BME280;50435;43.700;-79.318;2023-03-24T11:44:31;100446.89;;;1.07;50.61
64139;BME280;50435;43.700;-79.318;2023-03-24T11:47:02;100452.77;;;0.57;50.99
64139;BME280;50435;43.700;-79.318;2023-03-24T11:49:36;100459.71;;;0.73;50.55
64139;BME280;50435;43.700;-79.318;2023-03-24T11:52:13;100466.84;;;0.90;50.95
64139;BME280;50435;43.700;-79.318;2023-03-24T11:54:44;100452.96;;;-0.42;50.51
64139;BME280;50435;43.700;-79.318;2023-03-24T11:57:14;100458.36;;;0.69;50.84
64139;BME280;50435;43.700;-79.318;2023-03-24T11:59:48;100469.03;;;-0.43;50.65
64139;BME280;50435;43.700;-79.318;2023-03-24T12:02:25;100467.22;;;0.75;50.55
64139;BME280;50435;43.700;-79.318;2023-03-24T12:05:11;100472.54;;;0.82;50.81
64139;BME280;50435;43.700;-79.318;2023-03-24T12:07:56;100478.29;;;-0.24;50.71
64139;BME280;50435;43.700;-79.318;2023-03-24T12:10:33;100481.48;;;1.29;50.33
64139;BME280;50435;43.700;-79.318;2023-03-24T12:13:08;100502.82;;;0.77;50.47
64139;BME280;50435;43.700;-79.318;2023-03-24T12:15:47;100501.89;;;0.78;50.17
64139;BME280;50435;43.700;-79.318;2023-03-24T12:18:29;100515.69;;;0.82;50.33
64139;BME280;50435;43.700;-79.318;2023-03-24T12:21:06;100527.09;;;0.87;50.30
64139;BME280;50435;43.700;-79.318;2023-03-24T12:23:49;100538.76;;;1.25;50.17
64139;BME280;50435;43.700;-79.318;2023-03-24T12:26:21;100545.48;;;0.91;50.02
64139;BME280;50435;43.700;-79.318;2023-03-24T12:29:09;100524.68;;;0.25;50.58
64139;BME280;50435;43.700;-79.318;2023-03-24T12:32:18;100542.76;;;1.02;50.41
64139;BME280;50435;43.700;-79.318;2023-03-24T12:35:06;100552.15;;;0.73;49.92
64139;BME280;50435;43.700;-79.318;2023-03-24T12:37:43;100553.22;;;0.87;50.48
64139;BME280;50435;43.700;-79.318;2023-03-24T12:40:35;100542.56;;;0.74;50.71
64139;BME280;50435;43.700;-79.318;2023-03-24T12:43:10;100539.61;;;0.94;50.30
64139;BME280;50435;43.700;-79.318;2023-03-24T12:45:43;100544.26;;;0.09;50.59
64139;BME280;50435;43.700;-79.318;2023-03-24T12:48:26;100553.85;;;0.89;50.49
64139;BME280;50435;43.700;-79.318;2023-03-24T12:51:08;100560.32;;;0.75;50.19
64139;BME280;50435;43.700;-79.318;2023-03-24T12:53:48;100578.39;;;0.79;50.69
64139;BME280;50435;43.700;-79.318;2023-03-24T12:56:25;100580.06;;;0.79;50.97
64139;BME280;50435;43.700;-79.318;2023-03-24T12:59:01;100582.36;;;0.14;51.37
64139;BME280;50435;43.700;-79.318;2023-03-24T13:01:33;100572.20;;;0.87;51.15
64139;BME280;50435;43.700;-79.318;2023-03-24T13:04:07;100575.39;;;0.20;51.72